sensor_id;sensor_type;location;lat;lon;timestamp;temperature;humidity
69281;SHT31;56392;51.082;17.080;2023-03-23T00:02:17;10.56;76.78
69281;SHT31;56392;51.082;17.080;2023-03-23T00:07:40;10.59;75.26
69281;SHT31;56392;51.082;17.080;2023-03-23T00:13:07;10.59;74.80
69281;SHT31;56392;51.082;17.080;2023-03-23T00:18:32;10.55;74.35
69281;SHT31;56392;51.082;17.080;2023-03-23T00:23:57;10.61;74.79
69281;SHT31;56392;51.082;17.080;2023-03-23T00:29:22;10.56;75.05
69281;SHT31;56392;51.082;17.080;2023-03-23T00:34:46;10.56;75.50
69281;SHT31;56392;51.082;17.080;2023-03-23T00:40:10;10.53;75.56
69281;SHT31;56392;51.082;17.080;2023-03-23T00:45:35;10.60;74.20
69281;SHT31;56392;51.082;17.080;2023-03-23T00:50:58;10.64;74.73
69281;SHT31;56392;51.082;17.080;2023-03-23T00:56:22;10.63;74.98
69281;SHT31;56392;51.082;17.080;2023-03-23T01:01:49;10.55;75.65
69281;SHT31;56392;51.082;17.080;2023-03-23T01:07:12;10.61;75.36
69281;SHT31;56392;51.082;17.080;2023-03-23T01:12:35;10.63;75.67
69281;SHT31;56392;51.082;17.080;2023-03-23T01:18:00;10.64;75.77
69281;SHT31;56392;51.082;17.080;2023-03-23T01:23:23;10.61;76.16
69281;SHT31;56392;51.082;17.080;2023-03-23T01:28:47;10.66;76.24
69281;SHT31;56392;51.082;17.080;2023-03-23T01:34:11;10.67;76.33
69281;SHT31;56392;51.082;17.080;2023-03-23T01:39:35;10.61;76.64
69281;SHT31;56392;51.082;17.080;2023-03-23T01:45:31;10.68;74.72
69281;SHT31;56392;51.082;17.080;2023-03-23T01:51:01;10.74;75.14
69281;SHT31;56392;51.082;17.080;2023-03-23T01:56:29;10.77;75.55
69281;SHT31;56392;51.082;17.080;2023-03-23T02:01:54;10.77;75.99
69281;SHT31;56392;51.082;17.080;2023-03-23T02:07:20;10.76;76.09
69281;SHT31;56392;51.082;17.080;2023-03-23T02:12:45;10.85;74.61
69281;SHT31;56392;51.082;17.080;2023-03-23T02:18:14;10.88;74.97
69281;SHT31;56392;51.082;17.080;2023-03-23T02:23:56;10.88;75.78
69281;SHT31;56392;51.082;17.080;2023-03-23T02:29:45;10.94;76.18
69281;SHT31;56392;51.082;17.080;2023-03-23T02:35:17;10.91;76.07
69281;SHT31;56392;51.082;17.080;2023-03-23T02:40:43;10.98;75.14
69281;SHT31;56392;51.082;17.080;2023-03-23T02:46:08;11.10;74.14
69281;SHT31;56392;51.082;17.080;2023-03-23T02:51:34;11.11;74.95
69281;SHT31;56392;51.082;17.080;2023-03-23T02:56:58;11.07;75.81
69281;SHT31;56392;51.082;17.080;2023-03-23T03:02:25;11.17;73.60
69281;SHT31;56392;51.082;17.080;2023-03-23T03:08:00;11.19;74.00
69281;SHT31;56392;51.082;17.080;2023-03-23T03:13:32;11.25;73.26
69281;SHT31;56392;51.082;17.080;2023-03-23T03:18:59;11.31;73.31
69281;SHT31;56392;51.082;17.080;2023-03-23T03:24:27;11.40;72.27
69281;SHT31;56392;51.082;17.080;2023-03-23T03:29:54;11.43;72.06
69281;SHT31;56392;51.082;17.080;2023-03-23T03:35:19;11.48;72.03
69281;SHT31;56392;51.082;17.080;2023-03-23T03:40:44;11.52;71.34
69281;SHT31;56392;51.082;17.080;2023-03-23T03:46:07;11.54;71.75
69281;SHT31;56392;51.082;17.080;2023-03-23T03:51:31;11.55;71.17
69281;SHT31;56392;51.082;17.080;2023-03-23T03:56:56;11.52;71.32
69281;SHT31;56392;51.082;17.080;2023-03-23T04:02:19;11.55;71.77
69281;SHT31;56392;51.082;17.080;2023-03-23T04:07:42;11.55;72.36
69281;SHT31;56392;51.082;17.080;2023-03-23T04:13:08;11.48;72.87
69281;SHT31;56392;51.082;17.080;2023-03-23T04:18:32;11.49;72.70
69281;SHT31;56392;51.082;17.080;2023-03-23T04:23:55;11.49;72.03
69281;SHT31;56392;51.082;17.080;2023-03-23T04:29:22;11.52;71.98
69281;SHT31;56392;51.082;17.080;2023-03-23T04:34:45;11.52;71.43
69281;SHT31;56392;51.082;17.080;2023-03-23T04:40:09;11.61;70.38
69281;SHT31;56392;51.082;17.080;2023-03-23T04:45:37;11.73;69.63
69281;SHT31;56392;51.082;17.080;2023-03-23T04:51:05;11.79;69.30
69281;SHT31;56392;51.082;17.080;2023-03-23T04:56:28;11.90;68.97
69281;SHT31;56392;51.082;17.080;2023-03-23T05:01:52;11.91;69.45
69281;SHT31;56392;51.082;17.080;2023-03-23T05:07:15;11.94;70.19
69281;SHT31;56392;51.082;17.080;2023-03-23T05:12:38;12.00;68.81
69281;SHT31;56392;51.082;17.080;2023-03-23T05:18:04;12.06;68.34
69281;SHT31;56392;51.082;17.080;2023-03-23T05:23:27;12.09;68.85
69281;SHT31;56392;51.082;17.080;2023-03-23T05:28:52;12.12;69.35
69281;SHT31;56392;51.082;17.080;2023-03-23T05:34:17;12.10;69.73
69281;SHT31;56392;51.082;17.080;2023-03-23T05:39:40;12.16;69.28
69281;SHT31;56392;51.082;17.080;2023-03-23T05:45:04;12.23;68.63
69281;SHT31;56392;51.082;17.080;2023-03-23T05:50:29;12.28;68.40
69281;SHT31;56392;51.082;17.080;2023-03-23T05:55:52;12.36;67.49
69281;SHT31;56392;51.082;17.080;2023-03-23T06:01:15;12.44;67.78
69281;SHT31;56392;51.082;17.080;2023-03-23T06:06:40;12.47;67.69
69281;SHT31;56392;51.082;17.080;2023-03-23T06:12:05;12.54;66.60
69281;SHT31;56392;51.082;17.080;2023-03-23T06:17:29;12.61;65.99
69281;SHT31;56392;51.082;17.080;2023-03-23T06:22:53;12.71;65.76
69281;SHT31;56392;51.082;17.080;2023-03-23T06:28:16;12.81;65.34
69281;SHT31;56392;51.082;17.080;2023-03-23T06:33:39;13.00;64.34
69281;SHT31;56392;51.082;17.080;2023-03-23T06:39:04;13.19;64.35
69281;SHT31;56392;51.082;17.080;2023-03-23T06:44:27;13.37;63.93
69281;SHT31;56392;51.082;17.080;2023-03-23T06:49:50;13.57;63.98
69281;SHT31;56392;51.082;17.080;2023-03-23T06:55:15;13.66;63.55
69281;SHT31;56392;51.082;17.080;2023-03-23T07:00:39;13.81;63.08
69281;SHT31;56392;51.082;17.080;2023-03-23T07:06:02;13.94;61.96
69281;SHT31;56392;51.082;17.080;2023-03-23T07:11:27;14.17;62.18
69281;SHT31;56392;51.082;17.080;2023-03-23T07:16:50;14.35;61.28
69281;SHT31;56392;51.082;17.080;2023-03-23T07:22:13;14.70;61.44
69281;SHT31;56392;51.082;17.080;2023-03-23T07:27:38;15.00;60.38
69281;SHT31;56392;51.082;17.080;2023-03-23T07:33:04;15.10;59.76
69281;SHT31;56392;51.082;17.080;2023-03-23T07:38:28;15.10;60.08
69281;SHT31;56392;51.082;17.080;2023-03-23T07:43:53;15.08;60.53
69281;SHT31;56392;51.082;17.080;2023-03-23T07:49:16;15.16;59.98
69281;SHT31;56392;51.082;17.080;2023-03-23T07:54:40;15.51;59.19
69281;SHT31;56392;51.082;17.080;2023-03-23T08:00:06;16.02;60.33
69281;SHT31;56392;51.082;17.080;2023-03-23T08:05:34;16.13;59.24
69281;SHT31;56392;51.082;17.080;2023-03-23T08:10:57;16.14;58.59
69281;SHT31;56392;51.082;17.080;2023-03-23T08:16:22;16.16;57.24
69281;SHT31;56392;51.082;17.080;2023-03-23T08:21:46;16.10;57.90
69281;SHT31;56392;51.082;17.080;2023-03-23T08:27:09;16.10;56.99
69281;SHT31;56392;51.082;17.080;2023-03-23T08:32:34;16.26;57.68
69281;SHT31;56392;51.082;17.080;2023-03-23T08:37:57;16.56;56.41
69281;SHT31;56392;51.082;17.080;2023-03-23T08:43:20;17.33;54.20
69281;SHT31;56392;51.082;17.080;2023-03-23T08:48:45;17.70;53.69
69281;SHT31;56392;51.082;17.080;2023-03-23T08:54:08;18.07;53.07
69281;SHT31;56392;51.082;17.080;2023-03-23T08:59:31;18.65;49.35
69281;SHT31;56392;51.082;17.080;2023-03-23T09:04:56;18.52;49.06
69281;SHT31;56392;51.082;17.080;2023-03-23T09:10:19;18.31;49.38
69281;SHT31;56392;51.082;17.080;2023-03-23T09:15:43;18.25;48.69
69281;SHT31;56392;51.082;17.080;2023-03-23T09:21:07;18.11;48.86
69281;SHT31;56392;51.082;17.080;2023-03-23T09:26:31;18.08;49.74
69281;SHT31;56392;51.082;17.080;2023-03-23T09:31:54;18.03;50.76
69281;SHT31;56392;51.082;17.080;2023-03-23T09:37:19;17.89;51.03
69281;SHT31;56392;51.082;17.080;2023-03-23T09:42:56;17.93;50.73
69281;SHT31;56392;51.082;17.080;2023-03-23T09:48:29;18.20;50.67
69281;SHT31;56392;51.082;17.080;2023-03-23T09:54:05;18.41;50.22
69281;SHT31;56392;51.082;17.080;2023-03-23T09:59:36;18.40;49.02
69281;SHT31;56392;51.082;17.080;2023-03-23T10:05:31;18.37;48.75
69281;SHT31;56392;51.082;17.080;2023-03-23T10:11:00;18.34;49.22
69281;SHT31;56392;51.082;17.080;2023-03-23T10:16:26;18.47;49.51
69281;SHT31;56392;51.082;17.080;2023-03-23T10:21:56;19.03;48.68
69281;SHT31;56392;51.082;17.080;2023-03-23T10:27:26;19.27;48.11
69281;SHT31;56392;51.082;17.080;2023-03-23T10:32:54;19.17;47.90
69281;SHT31;56392;51.082;17.080;2023-03-23T10:38:23;18.93;48.39
69281;SHT31;56392;51.082;17.080;2023-03-23T10:43:48;18.73;47.83
69281;SHT31;56392;51.082;17.080;2023-03-23T10:49:15;18.59;48.02
69281;SHT31;56392;51.082;17.080;2023-03-23T10:54:48;18.31;47.99
69281;SHT31;56392;51.082;17.080;2023-03-23T11:00:20;18.25;48.10
69281;SHT31;56392;51.082;17.080;2023-03-23T11:05:48;18.32;49.04
69281;SHT31;56392;51.082;17.080;2023-03-23T11:11:16;18.45;48.67
69281;SHT31;56392;51.082;17.080;2023-03-23T11:16:43;18.47;48.78
69281;SHT31;56392;51.082;17.080;2023-03-23T11:22:08;18.41;47.95
69281;SHT31;56392;51.082;17.080;2023-03-23T11:27:38;18.40;48.93
69281;SHT31;56392;51.082;17.080;2023-03-23T11:33:03;18.48;48.18
69281;SHT31;56392;51.082;17.080;2023-03-23T11:38:26;18.45;47.12
69281;SHT31;56392;51.082;17.080;2023-03-23T11:43:52;18.37;48.74
69281;SHT31;56392;51.082;17.080;2023-03-23T11:49:24;18.34;49.29
69281;SHT31;56392;51.082;17.080;2023-03-23T11:54:52;18.28;48.43
69281;SHT31;56392;51.082;17.080;2023-03-23T12:00:20;18.21;48.48
69281;SHT31;56392;51.082;17.080;2023-03-23T12:05:49;18.20;48.90
69281;SHT31;56392;51.082;17.080;2023-03-23T12:11:20;18.23;49.21
69281;SHT31;56392;51.082;17.080;2023-03-23T12:17:03;18.21;48.37
69281;SHT31;56392;51.082;17.080;2023-03-23T12:22:37;18.21;49.39
69281;SHT31;56392;51.082;17.080;2023-03-23T12:28:09;18.17;49.75
69281;SHT31;56392;51.082;17.080;2023-03-23T12:33:43;18.21;49.59
69281;SHT31;56392;51.082;17.080;2023-03-23T12:39:33;18.18;48.71
69281;SHT31;56392;51.082;17.080;2023-03-23T12:45:04;18.14;49.39
69281;SHT31;56392;51.082;17.080;2023-03-23T12:50:32;18.14;49.34
69281;SHT31;56392;51.082;17.080;2023-03-23T12:56:09;18.11;49.62
69281;SHT31;56392;51.082;17.080;2023-03-23T13:01:38;18.11;49.88
69281;SHT31;56392;51.082;17.080;2023-03-23T13:07:05;18.05;49.69
69281;SHT31;56392;51.082;17.080;2023-03-23T13:12:32;18.04;50.27
69281;SHT31;56392;51.082;17.080;2023-03-23T13:18:02;18.04;50.27
69281;SHT31;56392;51.082;17.080;2023-03-23T13:23:31;18.13;50.25
69281;SHT31;56392;51.082;17.080;2023-03-23T13:28:58;18.14;50.49
69281;SHT31;56392;51.082;17.080;2023-03-23T13:34:25;18.20;51.00
69281;SHT31;56392;51.082;17.080;2023-03-23T13:39:52;18.27;50.41
69281;SHT31;56392;51.082;17.080;2023-03-23T13:45:23;18.27;49.64
69281;SHT31;56392;51.082;17.080;2023-03-23T13:50:51;18.37;49.53
69281;SHT31;56392;51.082;17.080;2023-03-23T13:56:17;18.34;49.18
69281;SHT31;56392;51.082;17.080;2023-03-23T14:01:43;18.30;49.40
69281;SHT31;56392;51.082;17.080;2023-03-23T14:07:09;18.20;50.52
69281;SHT31;56392;51.082;17.080;2023-03-23T14:12:33;18.11;50.96
69281;SHT31;56392;51.082;17.080;2023-03-23T14:18:01;18.01;51.84
69281;SHT31;56392;51.082;17.080;2023-03-23T14:23:25;17.98;52.11
69281;SHT31;56392;51.082;17.080;2023-03-23T14:28:51;17.91;52.15
69281;SHT31;56392;51.082;17.080;2023-03-23T14:34:19;17.90;52.52
69281;SHT31;56392;51.082;17.080;2023-03-23T14:39:45;17.96;52.62
69281;SHT31;56392;51.082;17.080;2023-03-23T14:45:14;18.03;52.58
69281;SHT31;56392;51.082;17.080;2023-03-23T14:50:40;18.10;53.02
69281;SHT31;56392;51.082;17.080;2023-03-23T14:56:10;18.05;53.29
69281;SHT31;56392;51.082;17.080;2023-03-23T15:01:35;18.00;53.69
69281;SHT31;56392;51.082;17.080;2023-03-23T15:07:02;18.00;54.04
69281;SHT31;56392;51.082;17.080;2023-03-23T15:12:28;18.00;54.45
69281;SHT31;56392;51.082;17.080;2023-03-23T15:17:52;17.91;55.44
69281;SHT31;56392;51.082;17.080;2023-03-23T15:23:22;17.84;54.99
69281;SHT31;56392;51.082;17.080;2023-03-23T15:28:48;17.82;55.22
69281;SHT31;56392;51.082;17.080;2023-03-23T15:34:24;17.89;54.89
69281;SHT31;56392;51.082;17.080;2023-03-23T15:39:49;17.89;54.53
69281;SHT31;56392;51.082;17.080;2023-03-23T15:45:24;17.90;54.96
69281;SHT31;56392;51.082;17.080;2023-03-23T15:50:48;17.84;55.34
69281;SHT31;56392;51.082;17.080;2023-03-23T15:56:13;17.74;55.39
69281;SHT31;56392;51.082;17.080;2023-03-23T16:01:39;17.72;55.38
69281;SHT31;56392;51.082;17.080;2023-03-23T16:07:03;17.70;56.00
69281;SHT31;56392;51.082;17.080;2023-03-23T16:12:29;17.60;55.96
69281;SHT31;56392;51.082;17.080;2023-03-23T16:17:52;17.57;56.05
69281;SHT31;56392;51.082;17.080;2023-03-23T16:23:15;17.54;56.17
69281;SHT31;56392;51.082;17.080;2023-03-23T16:28:39;17.53;56.54
69281;SHT31;56392;51.082;17.080;2023-03-23T16:34:03;17.50;57.15
69281;SHT31;56392;51.082;17.080;2023-03-23T16:39:26;17.40;58.81
69281;SHT31;56392;51.082;17.080;2023-03-23T16:44:51;17.25;60.28
69281;SHT31;56392;51.082;17.080;2023-03-23T16:50:17;17.12;61.08
69281;SHT31;56392;51.082;17.080;2023-03-23T16:55:40;17.12;60.23
69281;SHT31;56392;51.082;17.080;2023-03-23T17:01:09;17.14;59.93
69281;SHT31;56392;51.082;17.080;2023-03-23T17:06:32;17.07;59.79
69281;SHT31;56392;51.082;17.080;2023-03-23T17:11:55;17.08;58.62
69281;SHT31;56392;51.082;17.080;2023-03-23T17:17:22;17.07;57.79
69281;SHT31;56392;51.082;17.080;2023-03-23T17:22:45;17.08;57.15
69281;SHT31;56392;51.082;17.080;2023-03-23T17:28:09;17.04;56.72
69281;SHT31;56392;51.082;17.080;2023-03-23T17:33:33;17.02;56.59
69281;SHT31;56392;51.082;17.080;2023-03-23T17:38:56;17.00;56.66
69281;SHT31;56392;51.082;17.080;2023-03-23T17:44:20;16.98;56.83
69281;SHT31;56392;51.082;17.080;2023-03-23T17:49:44;16.95;57.09
69281;SHT31;56392;51.082;17.080;2023-03-23T17:55:08;16.87;57.32
69281;SHT31;56392;51.082;17.080;2023-03-23T18:00:31;16.81;57.45
69281;SHT31;56392;51.082;17.080;2023-03-23T18:05:59;16.75;57.63
69281;SHT31;56392;51.082;17.080;2023-03-23T18:11:22;16.75;57.67
69281;SHT31;56392;51.082;17.080;2023-03-23T18:16:46;16.72;57.80
69281;SHT31;56392;51.082;17.080;2023-03-23T18:22:11;16.71;57.82
69281;SHT31;56392;51.082;17.080;2023-03-23T18:27:34;16.65;57.98
69281;SHT31;56392;51.082;17.080;2023-03-23T18:32:58;16.63;58.19
69281;SHT31;56392;51.082;17.080;2023-03-23T18:38:22;16.60;58.42
69281;SHT31;56392;51.082;17.080;2023-03-23T18:43:46;16.57;59.00
69281;SHT31;56392;51.082;17.080;2023-03-23T18:49:09;16.56;58.96
69281;SHT31;56392;51.082;17.080;2023-03-23T18:54:34;16.49;59.16
69281;SHT31;56392;51.082;17.080;2023-03-23T18:59:58;16.50;59.27
69281;SHT31;56392;51.082;17.080;2023-03-23T19:05:22;16.44;59.68
69281;SHT31;56392;51.082;17.080;2023-03-23T19:10:46;16.43;59.44
69281;SHT31;56392;51.082;17.080;2023-03-23T19:16:10;16.40;59.24
69281;SHT31;56392;51.082;17.080;2023-03-23T19:21:34;16.40;59.28
69281;SHT31;56392;51.082;17.080;2023-03-23T19:26:58;16.37;60.06
69281;SHT31;56392;51.082;17.080;2023-03-23T19:32:22;16.30;60.30
69281;SHT31;56392;51.082;17.080;2023-03-23T19:37:45;16.29;59.79
69281;SHT31;56392;51.082;17.080;2023-03-23T19:43:10;16.26;60.60
69281;SHT31;56392;51.082;17.080;2023-03-23T19:48:33;16.19;61.44
69281;SHT31;56392;51.082;17.080;2023-03-23T19:53:58;16.03;63.46
69281;SHT31;56392;51.082;17.080;2023-03-23T19:59:22;15.91;64.17
69281;SHT31;56392;51.082;17.080;2023-03-23T20:04:46;15.81;65.37
69281;SHT31;56392;51.082;17.080;2023-03-23T20:10:09;15.79;64.96
69281;SHT31;56392;51.082;17.080;2023-03-23T20:15:33;15.71;65.44
69281;SHT31;56392;51.082;17.080;2023-03-23T20:21:01;15.72;64.95
69281;SHT31;56392;51.082;17.080;2023-03-23T20:26:26;15.71;64.86
69281;SHT31;56392;51.082;17.080;2023-03-23T20:31:51;15.65;65.54
69281;SHT31;56392;51.082;17.080;2023-03-23T20:37:15;15.65;65.84
69281;SHT31;56392;51.082;17.080;2023-03-23T20:42:41;15.62;65.02
69281;SHT31;56392;51.082;17.080;2023-03-23T20:48:06;15.61;64.83
69281;SHT31;56392;51.082;17.080;2023-03-23T20:53:30;15.58;64.77
69281;SHT31;56392;51.082;17.080;2023-03-23T20:58:54;15.61;64.53
69281;SHT31;56392;51.082;17.080;2023-03-23T21:04:21;15.54;65.03
69281;SHT31;56392;51.082;17.080;2023-03-23T21:09:48;15.37;65.76
69281;SHT31;56392;51.082;17.080;2023-03-23T21:15:11;15.27;66.10
69281;SHT31;56392;51.082;17.080;2023-03-23T21:20:37;15.08;66.73
69281;SHT31;56392;51.082;17.080;2023-03-23T21:26:03;14.94;67.05
69281;SHT31;56392;51.082;17.080;2023-03-23T21:31:27;14.84;67.12
69281;SHT31;56392;51.082;17.080;2023-03-23T21:36:53;14.68;67.70
69281;SHT31;56392;51.082;17.080;2023-03-23T21:42:16;14.50;68.49
69281;SHT31;56392;51.082;17.080;2023-03-23T21:47:39;14.40;69.05
69281;SHT31;56392;51.082;17.080;2023-03-23T21:53:05;14.26;69.23
69281;SHT31;56392;51.082;17.080;2023-03-23T21:58:28;14.26;69.21
69281;SHT31;56392;51.082;17.080;2023-03-23T22:03:51;14.12;69.68
69281;SHT31;56392;51.082;17.080;2023-03-23T22:09:16;14.11;69.99
69281;SHT31;56392;51.082;17.080;2023-03-23T22:14:39;13.98;70.08
69281;SHT31;56392;51.082;17.080;2023-03-23T22:20:02;13.98;69.98
69281;SHT31;56392;51.082;17.080;2023-03-23T22:25:28;13.88;70.01
69281;SHT31;56392;51.082;17.080;2023-03-23T22:30:52;13.82;70.21
69281;SHT31;56392;51.082;17.080;2023-03-23T22:36:16;13.73;70.52
69281;SHT31;56392;51.082;17.080;2023-03-23T22:41:41;13.64;71.01
69281;SHT31;56392;51.082;17.080;2023-03-23T22:47:04;13.57;71.24
69281;SHT31;56392;51.082;17.080;2023-03-23T22:52:27;13.51;71.03
69281;SHT31;56392;51.082;17.080;2023-03-23T22:57:51;13.51;71.24
69281;SHT31;56392;51.082;17.080;2023-03-23T23:03:15;13.44;71.28
69281;SHT31;56392;51.082;17.080;2023-03-23T23:08:38;13.33;71.48
69281;SHT31;56392;51.082;17.080;2023-03-23T23:14:04;13.23;71.87
69281;SHT31;56392;51.082;17.080;2023-03-23T23:19:27;13.13;72.21
69281;SHT31;56392;51.082;17.080;2023-03-23T23:24:50;13.18;71.97
69281;SHT31;56392;51.082;17.080;2023-03-23T23:30:14;13.24;71.85
69281;SHT31;56392;51.082;17.080;2023-03-23T23:35:38;13.32;71.59
69281;SHT31;56392;51.082;17.080;2023-03-23T23:41:02;13.36;72.49
69281;SHT31;56392;51.082;17.080;2023-03-23T23:46:28;13.30;72.36
69281;SHT31;56392;51.082;17.080;2023-03-23T23:51:52;13.47;71.35
69281;SHT31;56392;51.082;17.080;2023-03-23T23:57:15;13.50;70.38
